createdAt,value
2022-09-24T00:04:56.777Z,4.17
2022-09-24T00:10:02.820Z,4.77
2022-09-24T00:15:08.940Z,4.07
2022-09-24T00:20:16.359Z,4.03
2022-09-24T00:25:33.613Z,4.50
2022-09-24T00:30:40.844Z,3.90
2022-09-24T00:35:48.252Z,3.63
2022-09-24T00:40:53.173Z,4.43
2022-09-24T00:46:04.421Z,4.23
2022-09-24T00:51:14.928Z,3.43
2022-09-24T00:56:20.360Z,3.73
2022-09-24T01:01:28.065Z,3.93
2022-09-24T01:06:35.569Z,3.83
2022-09-24T01:11:50.667Z,3.70
2022-09-24T01:17:05.467Z,3.83
2022-09-24T01:22:25.771Z,4.20
2022-09-24T01:27:47.164Z,4.20
2022-09-24T01:32:59.003Z,4.50
2022-09-24T01:38:06.754Z,4.53
2022-09-24T01:43:13.619Z,4.30
2022-09-24T01:48:22.076Z,4.80
2022-09-24T01:53:30.374Z,4.80
2022-09-24T01:58:43.102Z,5.40
2022-09-24T02:03:56.631Z,4.10
2022-09-24T02:09:01.958Z,4.87
2022-09-24T02:14:11.324Z,4.67
2022-09-24T02:19:22.119Z,3.83
2022-09-24T02:24:33.550Z,4.60
2022-09-24T02:29:38.604Z,4.30
2022-09-24T02:34:50.071Z,5.13
2022-09-24T02:39:54.896Z,4.97
2022-09-24T02:45:00.691Z,4.73
2022-09-24T02:50:09.216Z,4.20
2022-09-24T02:55:14.384Z,4.77
2022-09-24T03:00:21.201Z,4.53
2022-09-24T03:05:28.689Z,4.23
2022-09-24T03:10:33.597Z,4.73
2022-09-24T03:15:38.717Z,4.70
2022-09-24T03:20:46.724Z,5.00
2022-09-24T03:25:51.737Z,4.60
2022-09-24T03:31:03.065Z,5.07
2022-09-24T03:36:13.779Z,4.83
2022-09-24T03:41:20.022Z,4.83
2022-09-24T03:46:30.272Z,4.43
2022-09-24T03:51:38.231Z,5.23
2022-09-24T03:56:43.227Z,4.53
2022-09-24T04:01:48.056Z,5.20
2022-09-24T04:06:55.754Z,4.93
2022-09-24T04:12:01.427Z,4.67
2022-09-24T04:17:06.400Z,4.70
2022-09-24T04:22:14.173Z,4.93
2022-09-24T04:27:19.140Z,5.47
2022-09-24T04:32:24.630Z,5.60
2022-09-24T04:37:32.112Z,4.80
2022-09-24T04:42:37.057Z,5.53
2022-09-24T04:47:42.798Z,6.27
2022-09-24T04:52:50.878Z,5.70
2022-09-24T04:57:58.192Z,6.20
2022-09-24T05:03:06.206Z,6.33
2022-09-24T05:08:13.725Z,5.60
2022-09-24T05:13:18.696Z,6.23
2022-09-24T05:18:23.516Z,5.83
2022-09-24T05:23:31.135Z,5.80
2022-09-24T05:28:37.745Z,5.93
2022-09-24T05:33:43.097Z,5.90
2022-09-24T05:38:50.986Z,5.97
2022-09-24T05:43:58.360Z,5.40
2022-09-24T05:49:03.349Z,5.20
2022-09-24T05:54:11.614Z,4.40
2022-09-24T05:59:16.726Z,5.00
2022-09-24T06:04:21.774Z,5.67
2022-09-24T06:09:29.307Z,5.57
2022-09-24T06:14:34.565Z,5.97
2022-09-24T06:19:39.516Z,5.13
2022-09-24T06:24:47.061Z,5.80
2022-09-24T06:29:51.962Z,5.53
2022-09-24T06:34:59.247Z,5.70
2022-09-24T06:40:07.994Z,5.67
2022-09-24T06:45:14.467Z,5.43
2022-09-24T06:50:19.330Z,5.70
2022-09-24T06:55:27.322Z,4.47
2022-09-24T07:00:32.547Z,6.37
2022-09-24T07:05:42.662Z,4.87
2022-09-24T07:10:53.005Z,5.50
2022-09-24T07:15:58.034Z,5.93
2022-09-24T07:21:02.885Z,5.03
2022-09-24T07:26:10.900Z,5.07
2022-09-24T07:31:17.687Z,5.40
2022-09-24T07:36:23.205Z,4.90
2022-09-24T07:41:30.974Z,5.53
2022-09-24T07:46:36.028Z,5.20
2022-09-24T07:51:41.136Z,5.87
2022-09-24T07:56:48.553Z,5.40
2022-09-24T08:01:54.161Z,5.37
2022-09-24T08:06:59.119Z,5.50
2022-09-24T08:12:07.428Z,4.70
2022-09-24T08:17:12.248Z,5.03
2022-09-24T08:22:17.317Z,4.30
2022-09-24T08:27:25.364Z,4.40
2022-09-24T08:32:30.247Z,3.90
2022-09-24T08:37:35.231Z,4.50
2022-09-24T08:42:52.169Z,5.07
2022-09-24T08:48:00.224Z,4.00
2022-09-24T08:53:16.084Z,3.90
2022-09-24T08:58:44.608Z,3.57
2022-09-24T09:03:56.461Z,3.67
2022-09-24T09:09:10.816Z,3.73
2022-09-24T09:14:22.128Z,3.80
2022-09-24T09:19:32.449Z,3.70
2022-09-24T09:24:50.046Z,3.10
2022-09-24T09:30:00.335Z,3.08
2022-09-24T09:35:14.246Z,2.92
2022-09-24T09:40:34.978Z,2.65
2022-09-24T09:45:47.838Z,2.70
2022-09-24T09:50:55.241Z,2.63
2022-09-24T09:56:03.143Z,2.78
2022-09-24T10:01:12.925Z,2.67
2022-09-24T10:06:28.053Z,3.13
2022-09-24T10:11:33.262Z,3.37
2022-09-24T10:16:44.006Z,3.03
2022-09-24T10:21:49.044Z,3.03
2022-09-24T10:26:54.645Z,3.10
2022-09-24T10:32:02.347Z,2.80
2022-09-24T10:37:16.929Z,2.87
2022-09-24T10:42:27.516Z,2.87
2022-09-24T10:47:46.360Z,3.20
2022-09-24T10:52:56.625Z,3.50
2022-09-24T10:58:09.581Z,3.70
2022-09-24T11:03:47.444Z,3.47
2022-09-24T11:09:09.686Z,3.10
2022-09-24T11:14:28.862Z,3.37
2022-09-24T11:20:01.823Z,3.07
2022-09-24T11:25:28.835Z,3.30
2022-09-24T11:30:44.429Z,3.10
2022-09-24T11:36:04.729Z,3.13
2022-09-24T11:41:23.020Z,3.00
2022-09-24T11:46:45.305Z,2.93
2022-09-24T11:52:00.047Z,2.90
2022-09-24T11:57:12.566Z,3.00
2022-09-24T12:02:23.931Z,2.77
2022-09-24T12:07:37.951Z,2.90
2022-09-24T12:12:46.568Z,3.27
2022-09-24T12:17:57.127Z,2.80
2022-09-24T12:23:08.367Z,2.67
2022-09-24T12:28:36.004Z,2.80
2022-09-24T12:33:47.007Z,2.43
2022-09-24T12:38:58.204Z,2.70
2022-09-24T12:44:08.919Z,2.30
2022-09-24T12:49:27.076Z,2.80
2022-09-24T12:54:36.633Z,3.10
2022-09-24T12:59:56.010Z,2.97
2022-09-24T13:05:19.967Z,2.40
2022-09-24T13:10:30.796Z,2.80
2022-09-24T13:15:38.995Z,3.30
2022-09-24T13:20:50.388Z,3.20
2022-09-24T13:26:05.058Z,4.77
2022-09-24T13:31:28.847Z,2.30
2022-09-24T13:36:48.535Z,3.50
2022-09-24T13:42:04.117Z,3.50
2022-09-24T13:47:17.681Z,2.80
2022-09-24T13:52:32.507Z,2.90
2022-09-24T13:57:46.230Z,3.07
2022-09-24T14:03:04.938Z,3.10
2022-09-24T14:08:14.835Z,3.27
2022-09-24T14:13:25.443Z,3.10
2022-09-24T14:18:31.943Z,3.27
2022-09-24T14:23:42.732Z,3.47
2022-09-24T14:28:50.325Z,3.30
2022-09-24T14:33:55.482Z,3.10
2022-09-24T14:39:06.598Z,3.13
2022-09-24T14:44:22.161Z,3.23
2022-09-24T14:49:30.469Z,3.10
2022-09-24T14:54:40.506Z,3.20
2022-09-24T14:59:49.788Z,3.40
2022-09-24T15:05:03.297Z,3.57
2022-09-24T15:10:23.032Z,3.63
2022-09-24T15:15:34.421Z,3.33
2022-09-24T15:20:39.442Z,3.40
2022-09-24T15:25:44.256Z,3.57
2022-09-24T15:30:51.761Z,4.30
2022-09-24T15:35:59.682Z,3.50
2022-09-24T15:41:04.732Z,3.67
2022-09-24T15:46:12.275Z,3.87
2022-09-24T15:51:20.081Z,3.60
2022-09-24T15:56:24.973Z,4.20
2022-09-24T16:01:32.463Z,4.23
2022-09-24T16:06:37.362Z,4.27
2022-09-24T16:11:42.465Z,4.50
2022-09-24T16:16:52.820Z,4.13
2022-09-24T16:21:59.952Z,4.37
2022-09-24T16:27:12.807Z,3.97
2022-09-24T16:32:20.588Z,4.30
2022-09-24T16:37:28.822Z,5.20
2022-09-24T16:42:34.452Z,5.47
2022-09-24T16:47:44.142Z,6.00
2022-09-24T16:52:54.980Z,7.03
2022-09-24T16:58:02.903Z,5.60
2022-09-24T17:03:12.720Z,5.00
2022-09-24T17:08:17.855Z,6.47
2022-09-24T17:13:23.676Z,5.87
2022-09-24T17:18:31.619Z,6.90
2022-09-24T17:23:37.892Z,7.50
2022-09-24T17:28:44.910Z,6.90
2022-09-24T17:33:57.973Z,7.77
2022-09-24T17:39:03.369Z,12.40
2022-09-24T17:44:10.772Z,9.70
2022-09-24T17:49:18.316Z,7.97
2022-09-24T17:54:26.851Z,8.47
2022-09-24T17:59:34.248Z,9.50
2022-09-24T18:04:45.319Z,11.07
2022-09-24T18:09:58.202Z,9.77
2022-09-24T18:15:04.582Z,13.57
2022-09-24T18:20:12.700Z,13.93
2022-09-24T18:25:21.479Z,12.47
2022-09-24T18:30:26.490Z,11.60
2022-09-24T18:35:47.675Z,11.93
2022-09-24T18:40:52.614Z,11.90
2022-09-24T18:45:58.383Z,12.57
2022-09-24T18:51:09.446Z,13.67
2022-09-24T18:56:15.225Z,14.30
2022-09-24T19:01:20.402Z,14.47
2022-09-24T19:06:28.736Z,14.50
2022-09-24T19:11:34.235Z,13.33
2022-09-24T19:16:39.250Z,12.83
2022-09-24T19:21:47.058Z,13.73
2022-09-24T19:26:53.652Z,13.03
2022-09-24T19:31:58.458Z,12.10
2022-09-24T19:37:07.893Z,12.33
2022-09-24T19:42:13.243Z,13.13
2022-09-24T19:47:18.730Z,14.00
2022-09-24T19:52:26.155Z,14.27
2022-09-24T19:57:30.983Z,13.47
2022-09-24T20:02:35.999Z,12.77
2022-09-24T20:07:45.943Z,13.60
2022-09-24T20:12:51.945Z,13.00
2022-09-24T20:17:57.972Z,12.50
2022-09-24T20:23:05.370Z,14.77
2022-09-24T20:28:14.306Z,13.67
2022-09-24T20:33:20.350Z,11.90
2022-09-24T20:38:28.513Z,13.30
2022-09-24T20:43:35.549Z,12.90
2022-09-24T20:48:40.524Z,12.47
2022-09-24T20:53:49.196Z,13.50
2022-09-24T20:58:56.727Z,13.33
2022-09-24T21:04:04.642Z,13.17
2022-09-24T21:09:12.167Z,13.83
2022-09-24T21:14:17.942Z,11.67
2022-09-24T21:19:23.023Z,12.20
2022-09-24T21:24:31.838Z,12.80
2022-09-24T21:29:36.823Z,13.00
2022-09-24T21:34:41.995Z,13.93
2022-09-24T21:39:50.241Z,15.23
2022-09-24T21:44:55.150Z,19.17
2022-09-24T21:50:00.113Z,17.47
2022-09-24T21:55:11.202Z,17.63
2022-09-24T22:00:17.956Z,15.57
2022-09-24T22:05:22.991Z,15.33
2022-09-24T22:10:30.399Z,13.43
2022-09-24T22:15:35.417Z,15.63
2022-09-24T22:20:44.909Z,14.60
2022-09-24T22:25:58.034Z,11.93
2022-09-24T22:31:07.220Z,11.87
2022-09-24T22:36:12.930Z,25.97
2022-09-24T22:41:23.947Z,12.57
2022-09-24T22:46:29.878Z,11.83
2022-09-24T22:51:36.240Z,11.27
2022-09-24T22:56:43.770Z,11.57
2022-09-24T23:01:48.883Z,11.07
2022-09-24T23:06:53.839Z,10.93
2022-09-24T23:12:02.550Z,12.53
2022-09-24T23:17:07.629Z,12.17
2022-09-24T23:22:12.697Z,11.27
2022-09-24T23:27:20.647Z,11.03
2022-09-24T23:32:26.101Z,11.10
2022-09-24T23:37:31.969Z,11.03
2022-09-24T23:42:39.503Z,11.17
2022-09-24T23:47:44.380Z,8.57
2022-09-24T23:52:49.246Z,9.37
2022-09-24T23:57:56.743Z,9.43
